Weather at Ndume Langa Airport

Public forecast

Using degrees Celsius for public forecast. Weather courtesy of forecast.io.

Closest aviation weather report (METAR) to Ndume Langa Airport

Report is more than 2 hours old.

Closest report is Nakuru Airport, 18.9 nm (35.1 km) NW.

2024/05/20 00:00 (retrieved 4 hours ago)

HKNK 200000Z 00000KT CAVOK 15/14

Closest aviation forecast (TAF) to Ndume Langa Airport

Forecast is more than 12 hours old.

Closest forecast is Bukoba Airport, 278.2 nm (515.3 km) W.

2024/05/19 12:30 (retrieved 15 hours ago)

TAF HTBU 191100Z 1912/2012 18010KT 9999 FEW024 FEW026CB BECMG 1916/1919 00000KT PROB30 TEMPO 2001/2007 SHRA BKN015 FEW017CB BECMG 2009/2012 17010KT NSW FEW023 FEW025CB